Time;durP1;ratioP1;P1;durP2;ratioP2;P2;SDS_P1;SDS_P2;PMS_P1;PMS_P2;Temp;Humidity;BMP_temperature;BMP_pressure;BME280_temperature;BME280_humidity;BME280_pressure;Samples;Min_cycle;Max_cycle;Signal;HPM_P1;HPM_P2
2024/01/13 00:00:19;;;;;;;14.82;10.18;;;;;;;1.41;100.00;102696.22;1044904;28;20288;-51
2024/01/13 00:00:51;;;;;;;11.23;9.30;;;;;;;1.39;100.00;102692.03;1048162;28;20283;-52
2024/01/13 00:01:22;;;;;;;12.35;9.38;;;;;;;1.41;100.00;102701.47;1047167;28;20672;-49
2024/01/13 00:01:54;;;;;;;13.30;9.77;;;;;;;1.36;100.00;102700.94;1047582;28;20352;-45
2024/01/13 00:02:26;;;;;;;14.48;11.20;;;;;;;1.38;100.00;102696.44;1046829;28;20772;-46
2024/01/13 00:02:57;;;;;;;12.70;10.45;;;;;;;1.42;100.00;102699.66;1047298;28;20314;-46
2024/01/13 00:03:29;;;;;;;13.65;9.90;;;;;;;1.43;100.00;102699.56;1047519;28;20789;-45
2024/01/13 00:04:01;;;;;;;12.10;9.88;;;;;;;1.42;100.00;102703.13;1047309;28;20299;-45
2024/01/13 00:04:33;;;;;;;13.20;9.90;;;;;;;1.44;100.00;102695.97;1047611;28;20793;-45
2024/01/13 00:05:05;;;;;;;13.45;10.27;;;;;;;1.38;100.00;102704.31;1048013;28;20287;-45
2024/01/13 00:05:37;;;;;;;11.32;9.63;;;;;;;1.44;100.00;102697.78;1047570;28;20807;-46
2024/01/13 00:06:09;;;;;;;13.63;10.15;;;;;;;1.36;100.00;102698.31;1047691;28;20784;-46
2024/01/13 00:06:41;;;;;;;14.93;11.32;;;;;;;1.40;100.00;102694.53;1047493;28;20295;-45
2024/01/13 00:07:12;;;;;;;13.32;9.70;;;;;;;1.44;100.00;102703.84;1047077;28;20362;-49
2024/01/13 00:07:44;;;;;;;13.80;10.52;;;;;;;1.43;100.00;102696.94;1047523;28;20309;-50
2024/01/13 00:08:16;;;;;;;13.48;10.68;;;;;;;1.44;100.00;102703.84;1047364;28;20326;-50
2024/01/13 00:09:00;;;;;;;14.07;10.15;;;;;;;1.39;100.00;102697.28;1043526;28;20370;-49
2024/01/13 00:09:31;;;;;;;14.25;10.50;;;;;;;1.41;100.00;102700.63;1043250;28;20820;-45
2024/01/13 00:10:03;;;;;;;15.80;9.85;;;;;;;1.40;100.00;102694.53;1045564;28;20353;-44
2024/01/13 00:10:35;;;;;;;14.07;9.60;;;;;;;1.38;100.00;102698.22;1047579;28;20299;-45
2024/01/13 00:11:07;;;;;;;11.70;9.70;;;;;;;1.37;100.00;102705.25;1047418;28;20656;-46
2024/01/13 00:11:38;;;;;;;12.60;9.25;;;;;;;1.33;100.00;102698.53;1047826;28;20396;-46
2024/01/13 00:12:10;;;;;;;14.98;9.20;;;;;;;1.37;100.00;102694.75;1047116;28;20303;-48
2024/01/13 00:12:41;;;;;;;13.20;10.48;;;;;;;1.41;100.00;102696.22;1047859;28;20849;-49
2024/01/13 00:13:13;;;;;;;14.68;10.50;;;;;;;1.43;100.00;102694.31;1045158;28;20649;-49
2024/01/13 00:13:45;;;;;;;14.10;10.07;;;;;;;1.40;100.00;102691.06;1047445;28;20835;-47
2024/01/13 00:14:16;;;;;;;12.07;9.50;;;;;;;1.36;100.00;102690.44;1047402;28;20291;-49
2024/01/13 00:14:48;;;;;;;12.32;8.73;;;;;;;1.35;100.00;102694.00;1047349;28;20298;-45
2024/01/13 00:15:20;;;;;;;13.50;10.02;;;;;;;1.37;100.00;102692.13;1047138;28;20788;-44
2024/01/13 00:15:52;;;;;;;12.25;9.68;;;;;;;1.27;100.00;102698.13;1047356;28;20309;-46
2024/01/13 00:16:23;;;;;;;12.32;9.50;;;;;;;1.29;100.00;102697.06;1047271;28;20294;-46
2024/01/13 00:16:55;;;;;;;13.40;9.93;;;;;;;1.33;100.00;102689.81;1047730;28;20369;-45
2024/01/13 00:17:27;;;;;;;12.70;10.85;;;;;;;1.36;100.00;102692.22;1047888;28;20294;-49
2024/01/13 00:17:58;;;;;;;12.77;9.20;;;;;;;1.32;100.00;102688.97;1047783;28;20854;-49
2024/01/13 00:18:30;;;;;;;15.30;10.77;;;;;;;1.33;100.00;102693.28;1047533;28;20294;-50
2024/01/13 00:19:11;;;;;;;11.30;9.52;;;;;;;1.18;100.00;102694.38;1045829;28;20438;-49
2024/01/13 00:19:43;;;;;;;11.45;9.27;;;;;;;1.19;100.00;102693.44;1047732;28;20044;-49
2024/01/13 00:20:15;;;;;;;10.95;8.80;;;;;;;1.23;100.00;102692.28;1047977;28;20329;-49
2024/01/13 00:20:51;;;;;;;10.85;8.77;;;;;;;1.19;100.00;102689.03;1047570;28;20789;-49
2024/01/13 00:21:22;;;;;;;13.02;9.88;;;;;;;1.17;100.00;102687.47;1047717;28;20379;-49
2024/01/13 00:21:54;;;;;;;11.75;8.93;;;;;;;1.16;100.00;102685.78;1047999;28;20875;-49
2024/01/13 00:22:26;;;;;;;11.38;9.27;;;;;;;1.14;100.00;102685.06;1047224;28;20309;-49
2024/01/13 00:22:57;;;;;;;12.38;8.48;;;;;;;1.18;100.00;102686.50;1047371;28;20306;-49
2024/01/13 00:23:29;;;;;;;12.35;8.93;;;;;;;1.19;100.00;102685.56;1047543;28;20294;-49
2024/01/13 00:24:01;;;;;;;11.27;8.98;;;;;;;1.18;100.00;102683.91;1047272;28;20302;-49
2024/01/13 00:24:32;;;;;;;11.02;9.15;;;;;;;1.11;100.00;102688.75;1047534;28;20863;-50
2024/01/13 00:25:04;;;;;;;13.75;9.23;;;;;;;1.16;100.00;102683.16;1047557;28;20290;-49
2024/01/13 00:25:36;;;;;;;10.15;8.45;;;;;;;1.18;100.00;102689.13;1047875;28;20302;-49
2024/01/13 00:26:07;;;;;;;13.52;9.52;;;;;;;1.18;100.00;102679.47;1047668;28;20293;-49
2024/01/13 00:26:39;;;;;;;11.15;9.52;;;;;;;1.25;100.00;102685.13;1047087;28;20346;-48
2024/01/13 00:27:11;;;;;;;11.40;8.60;;;;;;;1.20;100.00;102689.88;1047588;28;20299;-49
2024/01/13 00:27:42;;;;;;;12.90;9.07;;;;;;;1.16;100.00;102685.78;1047334;28;20653;-48
2024/01/13 00:28:14;;;;;;;13.02;8.90;;;;;;;1.11;100.00;102686.13;1047581;28;20291;-49
2024/01/13 00:29:02;;;;;;;10.60;8.50;;;;;;;1.10;100.00;102687.06;1047494;28;20310;-49
2024/01/13 00:29:33;;;;;;;10.13;7.97;;;;;;;1.07;100.00;102682.00;1047335;28;20303;-49
2024/01/13 00:30:06;;;;;;;11.43;9.10;;;;;;;1.06;100.00;102684.75;1047905;28;20295;-45
2024/01/13 00:30:38;;;;;;;10.82;8.43;;;;;;;1.07;100.00;102682.00;1047834;28;20306;-45
2024/01/13 00:31:09;;;;;;;11.77;8.48;;;;;;;1.08;100.00;102677.59;1047516;28;20307;-47
2024/01/13 00:31:41;;;;;;;11.15;8.68;;;;;;;1.07;100.00;102681.19;1047778;28;20299;-45
2024/01/13 00:32:13;;;;;;;11.45;8.45;;;;;;;1.08;100.00;102669.72;1047546;28;20301;-45
2024/01/13 00:32:44;;;;;;;10.00;8.20;;;;;;;1.03;100.00;102669.22;1047765;28;20294;-49
2024/01/13 00:33:16;;;;;;;13.13;9.38;;;;;;;1.06;100.00;102675.09;1047426;28;20294;-50
2024/01/13 00:33:48;;;;;;;12.07;8.77;;;;;;;1.03;100.00;102669.22;1047293;28;20315;-49
2024/01/13 00:34:20;;;;;;;9.30;7.55;;;;;;;1.02;100.00;102670.16;1047452;28;20298;-49
2024/01/13 00:34:52;;;;;;;11.15;8.93;;;;;;;1.11;100.00;102661.66;1047496;28;20295;-49
2024/01/13 00:35:23;;;;;;;10.52;8.60;;;;;;;1.17;100.00;102662.06;1047658;28;20379;-51
2024/01/13 00:35:55;;;;;;;12.13;9.13;;;;;;;1.11;100.00;102656.41;1047694;28;20285;-49
2024/01/13 00:36:27;;;;;;;11.60;8.45;;;;;;;1.09;100.00;102658.28;1047406;28;20389;-49
2024/01/13 00:36:58;;;;;;;10.80;8.48;;;;;;;1.13;100.00;102665.00;1043124;28;20904;-48
2024/01/13 00:37:30;;;;;;;10.65;8.15;;;;;;;1.12;100.00;102660.72;1043317;28;20306;-50
2024/01/13 00:38:01;;;;;;;10.63;8.75;;;;;;;1.12;100.00;102663.34;1043346;28;20533;-45
2024/01/13 00:38:33;;;;;;;11.27;8.95;;;;;;;1.09;100.00;102666.16;1047623;28;20337;-46
2024/01/13 00:39:08;;;;;;;11.05;8.75;;;;;;;1.07;100.00;102670.69;1051628;28;20806;-45
2024/01/13 00:39:39;;;;;;;10.10;7.82;;;;;;;1.06;100.00;102669.00;1050790;28;20668;-45
2024/01/13 00:40:12;;;;;;;10.98;8.40;;;;;;;1.09;100.00;102660.91;1047982;28;20291;-46
2024/01/13 00:40:44;;;;;;;12.23;8.65;;;;;;;1.13;100.00;102665.84;1047748;28;20302;-46
2024/01/13 00:41:16;;;;;;;11.32;9.05;;;;;;;1.11;100.00;102661.66;1045745;28;20378;-45
2024/01/13 00:41:48;;;;;;;10.02;7.53;;;;;;;1.08;100.00;102662.69;1047739;28;20401;-46
2024/01/13 00:42:19;;;;;;;9.88;8.48;;;;;;;1.16;100.00;102664.78;1047491;28;20299;-45
2024/01/13 00:42:51;;;;;;;12.13;8.25;;;;;;;1.21;100.00;102662.66;1047821;28;20652;-44
2024/01/13 00:43:22;;;;;;;10.93;8.63;;;;;;;1.21;100.00;102660.03;1047520;28;20302;-46
2024/01/13 00:43:54;;;;;;;12.60;9.23;;;;;;;1.18;100.00;102652.41;1047679;28;20399;-45
2024/01/13 00:44:26;;;;;;;10.48;8.18;;;;;;;1.20;100.00;102666.25;1047619;28;20948;-45
2024/01/13 00:44:57;;;;;;;11.68;8.10;;;;;;;1.24;100.00;102662.44;1047890;28;20641;-44
2024/01/13 00:45:29;;;;;;;10.10;8.23;;;;;;;1.19;100.00;102662.78;1045748;28;20390;-52
2024/01/13 00:46:00;;;;;;;10.32;8.30;;;;;;;1.13;100.00;102659.78;1047671;28;20784;-49
2024/01/13 00:46:32;;;;;;;11.90;8.68;;;;;;;1.10;100.00;102667.88;1047632;28;20310;-49
2024/01/13 00:47:04;;;;;;;10.90;8.95;;;;;;;1.13;100.00;102665.00;1046897;28;20294;-49
2024/01/13 00:47:35;;;;;;;11.02;8.35;;;;;;;1.17;100.00;102666.47;1047735;28;20333;-49
2024/01/13 00:48:07;;;;;;;13.27;9.13;;;;;;;1.08;100.00;102667.94;1047430;28;20396;-45
2024/01/13 00:48:42;;;;;;;10.23;8.40;;;;;;;1.11;100.00;102666.91;1047373;28;20299;-46
2024/01/13 00:49:14;;;;;;;10.40;8.77;;;;;;;1.17;100.00;102663.84;1047811;28;20322;-46
2024/01/13 00:49:46;;;;;;;10.80;8.77;;;;;;;1.12;100.00;102665.97;1047605;28;20347;-45
2024/01/13 00:50:18;;;;;;;13.48;9.35;;;;;;;1.12;100.00;102665.97;1047521;28;20303;-45
2024/01/13 00:50:50;;;;;;;10.30;8.57;;;;;;;1.09;100.00;102666.16;1047780;28;20324;-46
2024/01/13 00:51:21;;;;;;;10.23;8.38;;;;;;;1.10;100.00;102665.25;1045435;28;20389;-46
2024/01/13 00:51:53;;;;;;;14.23;9.13;;;;;;;1.17;100.00;102661.22;1047604;28;20649;-46
2024/01/13 00:52:26;;;;;;;10.93;8.57;;;;;;;1.21;100.00;102668.75;1047692;28;20302;-45
2024/01/13 00:52:58;;;;;;;11.40;9.07;;;;;;;1.23;100.00;102655.53;1047598;28;20780;-45
2024/01/13 00:53:30;;;;;;;10.45;8.27;;;;;;;1.06;100.00;102658.50;1047429;28;20649;-45
2024/01/13 00:54:06;;;;;;;12.02;8.88;;;;;;;1.08;100.00;102667.94;1047746;28;20290;-46
2024/01/13 00:54:44;;;;;;;10.93;8.23;;;;;;;1.02;100.00;102662.31;1047616;28;20344;-45
2024/01/13 00:55:16;;;;;;;12.52;9.00;;;;;;;1.11;100.00;102666.91;1047008;28;20672;-46
2024/01/13 00:55:47;;;;;;;11.88;9.23;;;;;;;1.11;100.00;102662.50;1047227;28;20302;-47
2024/01/13 00:56:19;;;;;;;10.38;9.27;;;;;;;1.12;100.00;102658.09;1047504;28;20278;-45
2024/01/13 00:56:53;;;;;;;11.38;8.90;;;;;;;1.09;100.00;102660.91;1047424;28;20768;-45
2024/01/13 00:57:24;;;;;;;11.15;9.20;;;;;;;1.12;100.00;102658.09;1047587;28;20317;-47
2024/01/13 00:57:56;;;;;;;11.63;9.32;;;;;;;1.14;100.00;102657.03;1047606;28;20763;-46
2024/01/13 00:58:28;;;;;;;13.68;8.85;;;;;;;1.08;100.00;102656.59;1047611;28;20313;-45
2024/01/13 00:59:13;;;;;;;10.73;8.60;;;;;;;1.09;100.00;102653.03;1047882;28;20290;-45
2024/01/13 00:59:44;;;;;;;13.70;9.02;;;;;;;1.07;100.00;102655.78;1047468;28;20305;-45
2024/01/13 01:00:16;;;;;;;11.45;8.93;;;;;;;1.04;100.00;102649.91;1047476;28;20302;-45
2024/01/13 01:00:48;;;;;;;10.05;7.72;;;;;;;1.07;100.00;102655.78;1047119;28;20307;-45
2024/01/13 01:01:19;;;;;;;9.48;8.23;;;;;;;1.09;100.00;102655.66;1046615;28;20530;-45
2024/01/13 01:01:51;;;;;;;9.48;7.97;;;;;;;1.13;100.00;102654.53;1047274;28;20322;-44
2024/01/13 01:02:23;;;;;;;13.52;9.48;;;;;;;1.14;100.00;102659.66;1039443;28;20296;-45
2024/01/13 01:02:54;;;;;;;12.82;9.60;;;;;;;1.17;100.00;102653.34;1043460;28;20288;-45
2024/01/13 01:03:26;;;;;;;10.60;8.95;;;;;;;1.20;100.00;102645.25;1041119;28;20315;-47
2024/01/13 01:03:58;;;;;;;12.80;9.65;;;;;;;1.22;100.00;102649.44;1043451;28;20365;-47
2024/01/13 01:04:30;;;;;;;10.95;8.95;;;;;;;1.24;100.00;102647.53;1047270;28;20294;-46
2024/01/13 01:05:02;;;;;;;11.82;8.95;;;;;;;1.26;100.00;102650.03;1047455;28;20356;-47
2024/01/13 01:05:33;;;;;;;11.23;9.07;;;;;;;1.26;100.00;102644.81;1047435;28;20295;-45
2024/01/13 01:06:05;;;;;;;15.48;9.77;;;;;;;1.27;100.00;102649.09;1047673;28;20303;-46
2024/01/13 01:06:37;;;;;;;13.88;8.27;;;;;;;1.34;100.00;102647.69;1047336;28;20622;-46
2024/01/13 01:07:09;;;;;;;10.38;8.68;;;;;;;1.32;100.00;102649.59;1047698;28;20793;-45
2024/01/13 01:07:41;;;;;;;16.02;9.10;;;;;;;1.32;100.00;102649.59;1047784;28;20305;-46
2024/01/13 01:08:12;;;;;;;13.00;8.45;;;;;;;1.30;100.00;102646.25;1047883;28;20963;-47
2024/01/13 01:08:54;;;;;;;11.23;8.48;;;;;;;1.31;100.00;102647.91;1047634;28;20311;-46
2024/01/13 01:09:25;;;;;;;9.32;7.47;;;;;;;1.31;100.00;102647.91;1047666;28;20703;-45
2024/01/13 01:09:57;;;;;;;9.88;8.38;;;;;;;1.36;100.00;102639.72;1047282;28;20780;-45
2024/01/13 01:10:29;;;;;;;10.32;7.50;;;;;;;1.38;100.00;102641.31;1047898;28;20298;-46
2024/01/13 01:11:00;;;;;;;9.88;7.95;;;;;;;1.38;100.00;102638.69;1047708;28;20428;-45
2024/01/13 01:11:32;;;;;;;10.68;8.23;;;;;;;1.33;100.00;102646.03;1047562;28;20303;-49
2024/01/13 01:12:04;;;;;;;11.23;7.75;;;;;;;1.33;100.00;102643.41;1047069;28;20321;-49
2024/01/13 01:12:36;;;;;;;9.55;7.30;;;;;;;1.37;100.00;102642.25;1047485;28;20607;-49
2024/01/13 01:13:07;;;;;;;9.13;7.55;;;;;;;1.41;100.00;102648.94;1047679;28;20537;-52
2024/01/13 01:13:39;;;;;;;10.45;7.20;;;;;;;1.42;100.00;102640.13;1047623;28;20298;-46
2024/01/13 01:14:11;;;;;;;9.32;6.85;;;;;;;1.45;100.00;102634.63;1047562;28;20283;-45
2024/01/13 01:14:43;;;;;;;11.50;7.63;;;;;;;1.43;100.00;102647.03;1047359;28;20299;-45
2024/01/13 01:15:14;;;;;;;9.15;7.18;;;;;;;1.40;100.00;102647.28;1046239;28;20291;-45
2024/01/13 01:15:46;;;;;;;9.43;6.93;;;;;;;1.37;100.00;102646.63;1043946;28;20607;-45
2024/01/13 01:16:18;;;;;;;8.27;5.72;;;;;;;1.34;100.00;102645.06;1046072;28;20298;-45
2024/01/13 01:16:49;;;;;;;8.82;6.85;;;;;;;1.34;100.00;102646.84;1046274;28;20299;-45
2024/01/13 01:17:21;;;;;;;7.38;6.18;;;;;;;1.37;100.00;102633.50;1047479;28;20302;-45
2024/01/13 01:17:53;;;;;;;6.82;6.13;;;;;;;1.29;100.00;102641.09;1045752;28;20787;-47
2024/01/13 01:18:25;;;;;;;8.05;6.68;;;;;;;1.30;100.00;102646.25;1047307;28;20886;-46
2024/01/13 01:19:13;;;;;;;12.75;6.38;;;;;;;1.33;100.00;102645.19;1047165;28;20295;-45
2024/01/13 01:19:45;;;;;;;7.40;6.15;;;;;;;1.39;100.00;102639.50;1046723;28;20295;-44
2024/01/13 01:20:17;;;;;;;9.20;6.55;;;;;;;1.40;100.00;102643.81;1047280;28;21092;-44
2024/01/13 01:20:49;;;;;;;7.60;5.75;;;;;;;1.40;100.00;102646.44;1047152;28;20326;-47
2024/01/13 01:21:20;;;;;;;9.02;7.28;;;;;;;1.41;100.00;102635.81;1046800;28;20298;-50
2024/01/13 01:21:52;;;;;;;9.48;5.95;;;;;;;1.40;100.00;102634.16;1047283;28;20299;-50
2024/01/13 01:22:24;;;;;;;8.93;6.20;;;;;;;1.34;100.00;102642.44;1047044;28;20310;-50
2024/01/13 01:22:55;;;;;;;9.20;6.28;;;;;;;1.36;100.00;102639.72;1047280;28;20294;-49
2024/01/13 01:23:27;;;;;;;7.55;5.95;;;;;;;1.37;100.00;102642.25;1047171;28;20388;-49
2024/01/13 01:23:58;;;;;;;7.65;6.28;;;;;;;1.39;100.00;102637.72;1046847;28;20316;-49
2024/01/13 01:24:30;;;;;;;8.05;6.28;;;;;;;1.40;100.00;102636.78;1046300;28;20834;-49
2024/01/13 01:25:02;;;;;;;8.10;6.65;;;;;;;1.38;100.00;102637.84;1044989;28;20323;-51
2024/01/13 01:25:34;;;;;;;7.22;5.38;;;;;;;1.35;100.00;102638.88;1046960;28;20476;-49
2024/01/13 01:26:05;;;;;;;9.18;6.22;;;;;;;1.27;100.00;102635.97;1046834;28;20302;-52
2024/01/13 01:26:37;;;;;;;8.38;5.07;;;;;;;1.31;100.00;102631.34;1047229;28;20298;-50
2024/01/13 01:27:10;;;;;;;10.52;6.53;;;;;;;1.32;100.00;102638.25;1047050;28;20299;-49
2024/01/13 01:27:42;;;;;;;6.07;5.47;;;;;;;1.30;100.00;102638.38;1047008;28;20824;-49
2024/01/13 01:28:13;;;;;;;8.23;6.70;;;;;;;1.29;100.00;102634.06;1047166;28;20294;-49
2024/01/13 01:28:57;;;;;;;8.77;6.07;;;;;;;1.32;100.00;102628.59;1047239;28;20302;-49
2024/01/13 01:29:28;;;;;;;6.97;5.95;;;;;;;1.24;100.00;102634.41;1046674;28;20399;-45
2024/01/13 01:30:00;;;;;;;10.55;6.18;;;;;;;1.24;100.00;102630.94;1047181;28;20303;-45
2024/01/13 01:30:32;;;;;;;8.18;6.70;;;;;;;1.27;100.00;102624.63;1046925;28;20373;-45
2024/01/13 01:31:04;;;;;;;8.15;7.05;;;;;;;1.17;100.00;102624.47;1046960;28;20317;-45
2024/01/13 01:31:36;;;;;;;7.60;6.18;;;;;;;1.20;100.00;102626.88;1047146;28;20359;-45
2024/01/13 01:32:08;;;;;;;8.13;6.78;;;;;;;1.11;100.00;102631.00;1047126;28;20313;-45
2024/01/13 01:32:40;;;;;;;8.50;7.10;;;;;;;1.10;100.00;102628.50;1047603;28;20649;-46
2024/01/13 01:33:11;;;;;;;7.10;6.35;;;;;;;1.06;100.00;102627.84;1046166;28;20407;-45
2024/01/13 01:33:43;;;;;;;9.15;7.07;;;;;;;1.08;100.00;102625.13;1047221;28;20299;-45
2024/01/13 01:34:15;;;;;;;7.90;6.55;;;;;;;1.04;100.00;102624.50;1046992;28;20804;-49
2024/01/13 01:34:47;;;;;;;8.70;6.63;;;;;;;1.07;100.00;102618.19;1047401;28;20369;-49
2024/01/13 01:35:24;;;;;;;7.90;6.40;;;;;;;1.01;100.00;102618.66;1047282;28;20383;-49
2024/01/13 01:35:55;;;;;;;11.38;7.68;;;;;;;1.03;100.00;102619.38;1047242;28;20294;-52
2024/01/13 01:36:27;;;;;;;9.73;8.68;;;;;;;1.12;100.00;102618.72;1047461;28;20322;-49
2024/01/13 01:36:59;;;;;;;8.52;7.28;;;;;;;1.08;100.00;102619.88;1046924;28;20299;-49
2024/01/13 01:37:31;;;;;;;9.55;7.00;;;;;;;1.07;100.00;102623.44;1046985;28;20309;-49
2024/01/13 01:38:02;;;;;;;9.27;7.20;;;;;;;1.06;100.00;102617.34;1046726;28;20772;-50
2024/01/13 01:38:34;;;;;;;9.10;7.30;;;;;;;1.10;100.00;102618.84;1043856;28;20301;-50
2024/01/13 01:39:14;;;;;;;8.73;6.53;;;;;;;1.10;100.00;102604.88;1045952;28;20378;-48
2024/01/13 01:39:46;;;;;;;10.65;6.95;;;;;;;1.09;100.00;102611.88;1047295;28;20055;-47
2024/01/13 01:40:19;;;;;;;9.68;7.60;;;;;;;1.08;100.00;102614.63;1047152;28;20309;-45
2024/01/13 01:40:54;;;;;;;8.43;6.57;;;;;;;1.12;100.00;102610.84;1047359;28;20439;-46
2024/01/13 01:41:25;;;;;;;11.55;7.45;;;;;;;1.08;100.00;102604.97;1046921;28;20364;-45
2024/01/13 01:41:57;;;;;;;9.85;7.30;;;;;;;1.06;100.00;102606.03;1047502;28;20755;-45
2024/01/13 01:42:29;;;;;;;9.82;7.82;;;;;;;1.05;100.00;102605.19;1045215;28;20365;-46
2024/01/13 01:43:00;;;;;;;8.00;7.20;;;;;;;1.05;100.00;102602.56;1047407;28;20306;-45
2024/01/13 01:43:32;;;;;;;10.30;7.90;;;;;;;1.03;100.00;102606.25;1047017;28;20808;-45
2024/01/13 01:44:03;;;;;;;9.32;7.55;;;;;;;1.03;100.00;102608.88;1047643;28;20299;-45
2024/01/13 01:44:35;;;;;;;9.80;6.60;;;;;;;1.03;100.00;102606.25;1047345;28;20306;-45
2024/01/13 01:45:07;;;;;;;11.85;8.63;;;;;;;1.05;100.00;102604.34;1046692;28;20646;-45
2024/01/13 01:45:39;;;;;;;13.00;8.30;;;;;;;1.04;100.00;102602.69;1047632;28;20297;-45
2024/01/13 01:46:13;;;;;;;11.70;7.15;;;;;;;1.02;100.00;102605.41;1047404;28;20518;-46
2024/01/13 01:46:46;;;;;;;10.50;7.50;;;;;;;1.03;100.00;102601.00;1047076;28;20294;-45
2024/01/13 01:47:19;;;;;;;10.43;8.10;;;;;;;1.03;100.00;102599.22;1047282;28;20295;-45
2024/01/13 01:47:52;;;;;;;10.82;7.88;;;;;;;1.07;100.00;102600.66;1039281;28;20296;-46
2024/01/13 01:48:27;;;;;;;11.65;8.23;;;;;;;1.03;100.00;102601.00;1039362;28;20303;-45
2024/01/13 01:49:02;;;;;;;9.45;7.53;;;;;;;1.07;100.00;102599.81;1043085;28;20303;-45
2024/01/13 01:49:35;;;;;;;11.38;8.57;;;;;;;1.08;100.00;102593.63;1043177;28;20716;-45
2024/01/13 01:50:08;;;;;;;11.05;9.00;;;;;;;1.16;100.00;102591.31;1047485;28;20801;-45
2024/01/13 01:50:40;;;;;;;11.65;7.50;;;;;;;1.20;100.00;102590.97;1047761;28;20295;-45
2024/01/13 01:51:16;;;;;;;12.30;9.13;;;;;;;1.15;100.00;102594.88;1047299;28;20326;-46
2024/01/13 01:51:49;;;;;;;10.15;7.57;;;;;;;1.14;100.00;102593.22;1045987;28;20382;-45
2024/01/13 01:52:20;;;;;;;8.68;7.63;;;;;;;1.12;100.00;102595.13;1047929;28;20302;-45
2024/01/13 01:52:52;;;;;;;10.18;8.50;;;;;;;1.13;100.00;102586.28;1045038;28;20314;-48
2024/01/13 01:53:24;;;;;;;11.90;8.40;;;;;;;1.10;100.00;102587.34;1046589;28;20803;-45
2024/01/13 01:53:56;;;;;;;10.55;8.43;;;;;;;1.12;100.00;102595.13;1047128;28;20795;-49
2024/01/13 01:54:28;;;;;;;11.00;8.20;;;;;;;1.11;100.00;102588.19;1046482;28;20298;-49
2024/01/13 01:55:00;;;;;;;13.27;9.55;;;;;;;1.11;100.00;102593.44;1046851;28;20757;-49
2024/01/13 01:55:31;;;;;;;10.32;7.97;;;;;;;1.09;100.00;102590.91;1043071;28;20640;-50
2024/01/13 01:56:12;;;;;;;9.52;8.27;;;;;;;1.09;100.00;102588.28;1042952;28;20382;-49
2024/01/13 01:56:43;;;;;;;11.32;8.18;;;;;;;1.12;100.00;102584.63;1044772;28;20361;-45
2024/01/13 01:57:16;;;;;;;10.02;8.20;;;;;;;1.09;100.00;102590.06;1047071;28;20422;-45
2024/01/13 01:57:48;;;;;;;10.70;9.27;;;;;;;1.10;100.00;102587.34;1047449;28;20393;-49
2024/01/13 01:58:20;;;;;;;9.80;8.60;;;;;;;1.11;100.00;102583.78;1042863;28;20339;-52
2024/01/13 01:59:02;;;;;;;11.25;7.85;;;;;;;1.09;100.00;102584.81;1043137;28;20373;-50
2024/01/13 01:59:34;;;;;;;10.00;8.35;;;;;;;1.11;100.00;102582.94;1042736;28;20365;-49
2024/01/13 02:00:09;;;;;;;13.00;8.65;;;;;;;1.09;100.00;102582.19;1045118;28;20299;-49
2024/01/13 02:00:43;;;;;;;12.07;8.20;;;;;;;1.10;100.00;102581.28;1047693;28;20318;-49
2024/01/13 02:01:16;;;;;;;10.55;8.07;;;;;;;1.15;100.00;102585.22;1047165;28;20306;-49
2024/01/13 02:01:49;;;;;;;9.85;8.00;;;;;;;1.11;100.00;102575.91;1047521;28;20328;-49
2024/01/13 02:02:21;;;;;;;10.57;9.18;;;;;;;1.14;100.00;102582.72;1046855;28;20617;-49
2024/01/13 02:02:54;;;;;;;9.82;7.70;;;;;;;1.15;100.00;102584.38;1047322;28;20303;-50
2024/01/13 02:03:26;;;;;;;9.27;7.78;;;;;;;1.18;100.00;102578.91;1046701;28;20313;-50
2024/01/13 02:03:58;;;;;;;9.98;8.45;;;;;;;1.14;100.00;102587.97;1047420;28;20318;-51
2024/01/13 02:04:30;;;;;;;11.23;8.40;;;;;;;1.17;100.00;102587.72;1047274;28;20657;-49
2024/01/13 02:05:03;;;;;;;10.50;8.85;;;;;;;1.18;100.00;102584.16;1047339;28;20306;-51
2024/01/13 02:05:35;;;;;;;13.02;8.38;;;;;;;1.16;100.00;102583.44;1046917;28;20424;-49
2024/01/13 02:06:07;;;;;;;11.55;8.75;;;;;;;1.11;100.00;102589.03;1047038;28;20405;-50
2024/01/13 02:06:39;;;;;;;12.35;8.70;;;;;;;1.11;100.00;102589.03;1047594;28;20309;-50
2024/01/13 02:07:11;;;;;;;8.57;7.68;;;;;;;1.03;100.00;102585.25;1047433;28;20376;-49
2024/01/13 02:07:43;;;;;;;10.38;8.70;;;;;;;1.12;100.00;102584.63;1047058;28;20295;-46
2024/01/13 02:08:15;;;;;;;9.43;8.18;;;;;;;1.07;100.00;102581.47;1046725;28;20291;-47
2024/01/13 02:09:02;;;;;;;10.23;8.05;;;;;;;1.10;100.00;102589.13;1046923;28;20309;-46
2024/01/13 02:09:34;;;;;;;9.43;8.10;;;;;;;1.14;100.00;102582.72;1045891;28;20356;-45
2024/01/13 02:10:06;;;;;;;12.63;8.65;;;;;;;1.07;100.00;102582.28;1047122;28;20356;-49
2024/01/13 02:10:37;;;;;;;11.20;7.50;;;;;;;1.13;100.00;102581.88;1047251;28;20294;-45
2024/01/13 02:11:12;;;;;;;9.98;7.85;;;;;;;1.10;100.00;102578.66;1047253;28;20305;-44
2024/01/13 02:11:46;;;;;;;11.18;8.98;;;;;;;1.01;100.00;102577.50;1047127;28;20294;-45
2024/01/13 02:12:18;;;;;;;11.15;8.55;;;;;;;1.06;100.00;102577.16;1047352;28;20297;-44
2024/01/13 02:12:50;;;;;;;9.45;8.40;;;;;;;1.12;100.00;102571.50;1047195;28;20298;-45
2024/01/13 02:13:21;;;;;;;10.57;8.82;;;;;;;1.09;100.00;102576.94;1045096;28;20350;-44
2024/01/13 02:13:53;;;;;;;10.55;8.40;;;;;;;1.09;100.00;102575.16;1046962;28;20306;-46
2024/01/13 02:14:25;;;;;;;11.98;8.57;;;;;;;1.10;100.00;102571.59;1047094;28;20310;-47
2024/01/13 02:14:56;;;;;;;12.40;8.27;;;;;;;1.03;100.00;102580.00;1046883;28;20369;-45
2024/01/13 02:15:28;;;;;;;10.32;8.73;;;;;;;1.07;100.00;102570.97;1046611;28;20409;-49
2024/01/13 02:16:00;;;;;;;12.82;8.82;;;;;;;1.10;100.00;102570.78;1043054;28;21132;-49
2024/01/13 02:16:32;;;;;;;12.98;8.88;;;;;;;1.11;100.00;102572.44;1042882;28;20311;-49
2024/01/13 02:17:04;;;;;;;12.70;9.15;;;;;;;1.14;100.00;102572.22;1043123;28;20682;-50
2024/01/13 02:17:36;;;;;;;12.70;9.57;;;;;;;1.09;100.00;102569.06;1043865;28;20526;-49
2024/01/13 02:18:08;;;;;;;11.38;9.02;;;;;;;1.06;100.00;102570.13;1044451;28;20365;-49
2024/01/13 02:18:48;;;;;;;10.77;8.70;;;;;;;1.13;100.00;102570.53;1045371;28;20290;-49
2024/01/13 02:19:20;;;;;;;11.32;8.70;;;;;;;1.18;100.00;102568.41;1047228;28;20291;-50
2024/01/13 02:19:51;;;;;;;10.38;8.52;;;;;;;1.20;100.00;102569.13;1047384;28;20290;-51
2024/01/13 02:20:23;;;;;;;10.90;8.73;;;;;;;1.24;100.00;102562.72;1046416;28;20302;-50
2024/01/13 02:20:55;;;;;;;10.68;8.88;;;;;;;1.27;100.00;102567.72;1047058;28;20287;-49
2024/01/13 02:21:27;;;;;;;11.77;10.38;;;;;;;1.24;100.00;102566.16;1047080;28;20303;-49
2024/01/13 02:21:59;;;;;;;18.02;10.55;;;;;;;1.29;100.00;102557.94;1046761;28;20800;-49
2024/01/13 02:22:33;;;;;;;12.20;9.88;;;;;;;1.37;100.00;102558.25;1046915;28;20797;-49
2024/01/13 02:23:05;;;;;;;11.35;9.88;;;;;;;1.34;100.00;102558.44;1046950;28;20309;-52
2024/01/13 02:23:36;;;;;;;15.52;10.25;;;;;;;1.33;100.00;102555.94;1046244;28;20370;-49
2024/01/13 02:24:08;;;;;;;14.52;10.57;;;;;;;1.28;100.00;102564.16;1047435;28;20547;-49
2024/01/13 02:24:40;;;;;;;12.85;9.95;;;;;;;1.31;100.00;102558.66;1047191;28;20767;-49
2024/01/13 02:25:11;;;;;;;15.07;10.20;;;;;;;1.34;100.00;102558.44;1047469;28;20333;-51
2024/01/13 02:25:43;;;;;;;12.27;9.50;;;;;;;1.28;100.00;102558.91;1045400;28;20424;-49
2024/01/13 02:26:14;;;;;;;12.18;10.32;;;;;;;1.30;100.00;102557.00;1047307;28;20283;-49
2024/01/13 02:26:46;;;;;;;13.27;10.38;;;;;;;1.28;100.00;102551.03;1047039;28;20305;-47
2024/01/13 02:27:18;;;;;;;13.68;10.55;;;;;;;1.27;100.00;102544.09;1047154;28;20301;-49
2024/01/13 02:27:49;;;;;;;14.00;10.50;;;;;;;1.30;100.00;102548.28;1047216;28;20302;-49
2024/01/13 02:28:21;;;;;;;14.13;11.15;;;;;;;1.24;100.00;102552.22;1046830;28;20411;-45
2024/01/13 02:29:11;;;;;;;13.85;10.65;;;;;;;1.24;100.00;102546.97;1047275;28;20728;-45
2024/01/13 02:29:43;;;;;;;10.13;8.68;;;;;;;1.28;100.00;102548.41;1047124;28;20298;-45
2024/01/13 02:30:14;;;;;;;14.00;10.25;;;;;;;1.25;100.00;102548.63;1044994;28;20295;-47